Friendship, Indiana
Current Conditions -  °F | °C
As of 12:52 PM on Thursday 30 Oct 2014 (Local Time) from KCVG Reporting Station
Scattered Clouds Scattered Clouds  
Wind Chill: 51°   Ceiling: Unl
Heat Index: 51°   Visibility: 10mi
Dew Point: 33°   Wind: 5mph
Humidity: 50%   Direction: 30°NNE
Pressure: 30.14"   Gusts: NA
Location:  38.97°N, 85.15°W
Report Text: KCVG 301652Z 03004KT 10SM SCT035 11/01 A3014 RMK AO2 SLP206 T01060006 VISNO 36R $
Loading
Personal Weather Stations






























Interactive Weather Map
Tropical Storm Tracking
New forecast layout! Learn more

10-Day Weather Forecast

Advertisements
Track Severe Weather on mobile